Century City, California
Current Conditions -  °F | °C
As of 8:51 AM on Thursday 30 Oct 2014 (Local Time) from KSMO Reporting Station
Clear Clear  
Wind Chill: 66°   Ceiling: Unl
Heat Index: 66°   Visibility: 10mi
Dew Point: 55°   Wind: 0mph
Humidity: 68%   Direction: NA
Pressure: 30"   Gusts: NA
Location:  34.0574°N, 118.414°W
Report Text: KSMO 301551Z 00000KT 10SM CLR 19/13 A3000 RMK AO2 SLP158 T01890128
Loading
Personal Weather Stations






























Interactive Weather Map
Tropical Storm Tracking
New forecast layout! Learn more

10-Day Weather Forecast

Advertisements
Track Severe Weather on mobile